createdAt,value
2022-11-22T00:00:17.277Z,1.36
2022-11-22T00:02:43.961Z,1.27
2022-11-22T00:05:10.705Z,1.31
2022-11-22T00:07:38.230Z,1.34
2022-11-22T00:10:09.809Z,1.19
2022-11-22T00:12:36.678Z,1.13
2022-11-22T00:15:04.042Z,1.12
2022-11-22T00:17:32.196Z,1.13
2022-11-22T00:19:58.749Z,1.14
2022-11-22T00:22:25.730Z,1.25
2022-11-22T00:24:52.974Z,1.23
2022-11-22T00:27:21.897Z,1.20
2022-11-22T00:29:48.433Z,1.15
2022-11-22T00:32:15.035Z,1.13
2022-11-22T00:34:41.603Z,1.15
2022-11-22T00:37:08.676Z,1.12
2022-11-22T00:39:35.247Z,1.23
2022-11-22T00:42:01.944Z,1.31
2022-11-22T00:44:28.504Z,1.32
2022-11-22T00:46:55.155Z,1.33
2022-11-22T00:49:22.082Z,1.40
2022-11-22T00:51:48.674Z,1.36
2022-11-22T00:54:15.307Z,1.38
2022-11-22T00:56:41.969Z,1.45
2022-11-22T00:59:08.513Z,1.54
2022-11-22T01:01:35.180Z,1.47
2022-11-22T01:04:01.799Z,1.44
2022-11-22T01:06:28.333Z,1.61
2022-11-22T01:08:54.987Z,1.59
2022-11-22T01:11:21.820Z,1.57
2022-11-22T01:13:48.425Z,1.63
2022-11-22T01:16:15.830Z,1.63
2022-11-22T01:18:42.886Z,1.63
2022-11-22T01:21:09.841Z,1.69
2022-11-22T01:23:37.316Z,1.72
2022-11-22T01:26:06.489Z,1.69
2022-11-22T01:28:33.040Z,1.58
2022-11-22T01:30:59.602Z,1.56
2022-11-22T01:33:26.246Z,1.57
2022-11-22T01:35:54.215Z,1.65
2022-11-22T01:38:20.816Z,1.74
2022-11-22T01:40:47.418Z,1.71
2022-11-22T01:43:22.066Z,1.56
2022-11-22T01:45:54.081Z,1.54
2022-11-22T01:48:38.408Z,1.60
2022-11-22T01:51:27.251Z,1.64
2022-11-22T01:53:57.744Z,1.64
2022-11-22T01:56:27.660Z,1.55
2022-11-22T01:58:58.725Z,1.47
2022-11-22T02:01:26.007Z,1.59
2022-11-22T02:03:54.996Z,1.44
2022-11-22T02:06:23.340Z,1.50
2022-11-22T02:08:57.523Z,1.60
2022-11-22T02:11:27.447Z,1.44
2022-11-22T02:13:58.268Z,1.59
2022-11-22T02:16:24.970Z,1.53
2022-11-22T02:18:51.535Z,1.59
2022-11-22T02:21:18.188Z,1.51
2022-11-22T02:23:55.916Z,1.58
2022-11-22T02:26:27.414Z,1.64
2022-11-22T02:28:57.925Z,1.69
2022-11-22T02:31:39.753Z,1.58
2022-11-22T02:34:06.858Z,1.71
2022-11-22T02:36:38.466Z,1.59
2022-11-22T02:39:07.225Z,1.58
2022-11-22T02:41:34.399Z,1.57
2022-11-22T02:44:01.124Z,1.56
2022-11-22T02:46:27.717Z,1.48
2022-11-22T02:48:54.289Z,1.37
2022-11-22T02:51:20.911Z,1.40
2022-11-22T02:53:50.210Z,1.40
2022-11-22T02:56:17.519Z,1.25
2022-11-22T02:58:44.655Z,1.15
2022-11-22T03:01:12.266Z,0.97
2022-11-22T03:03:38.886Z,0.75
2022-11-22T03:06:05.531Z,0.62
2022-11-22T03:08:33.330Z,0.47
2022-11-22T03:11:00.246Z,0.52
2022-11-22T03:13:26.956Z,0.41
2022-11-22T03:15:53.588Z,0.42
2022-11-22T03:18:20.153Z,0.40
2022-11-22T03:20:46.695Z,0.40
2022-11-22T03:23:13.325Z,0.31
2022-11-22T03:25:40.477Z,0.35
2022-11-22T03:28:07.716Z,0.28
2022-11-22T03:30:34.479Z,0.31
2022-11-22T03:33:01.122Z,0.22
2022-11-22T03:35:27.664Z,0.20
2022-11-22T03:37:54.182Z,0.06
2022-11-22T03:40:21.202Z,0.06
2022-11-22T03:42:47.876Z,0.14
2022-11-22T03:45:14.601Z,0.10
2022-11-22T03:47:41.191Z,0.09
2022-11-22T03:50:08.037Z,0.15
2022-11-22T03:52:34.581Z,0.14
2022-11-22T03:55:01.187Z,0.16
2022-11-22T03:57:27.765Z,0.24
2022-11-22T03:59:54.318Z,0.04
2022-11-22T04:02:20.919Z,-0.02
2022-11-22T04:04:47.435Z,-0.11
2022-11-22T04:07:13.977Z,-0.24
2022-11-22T04:09:40.581Z,-0.38
2022-11-22T04:12:07.203Z,-0.50
2022-11-22T04:14:52.284Z,-0.62
2022-11-22T04:17:38.815Z,-0.68
2022-11-22T04:20:24.235Z,-0.74
2022-11-22T04:23:01.960Z,-0.90
2022-11-22T04:25:30.673Z,-0.91
2022-11-22T04:27:58.088Z,-1.05
2022-11-22T04:30:45.497Z,-1.08
2022-11-22T04:33:12.778Z,-1.24
2022-11-22T04:35:39.930Z,-1.15
2022-11-22T04:38:06.853Z,-1.12
2022-11-22T04:40:33.835Z,-1.29
2022-11-22T04:43:19.028Z,-1.23
2022-11-22T04:45:46.114Z,-1.13
2022-11-22T04:48:13.007Z,-1.17
2022-11-22T04:50:59.807Z,-1.22
2022-11-22T04:53:27.365Z,-1.31
2022-11-22T04:55:54.484Z,-1.28
2022-11-22T04:58:21.539Z,-1.30
2022-11-22T05:00:48.352Z,-1.28
2022-11-22T05:03:15.700Z,-1.29
2022-11-22T05:05:43.712Z,-1.19
2022-11-22T05:08:11.309Z,-1.16
2022-11-22T05:10:56.645Z,-1.18
2022-11-22T05:13:37.105Z,-1.27
2022-11-22T05:16:05.603Z,-1.26
2022-11-22T05:18:32.338Z,-1.36
2022-11-22T05:21:00.755Z,-1.26
2022-11-22T05:23:45.661Z,-1.13
2022-11-22T05:26:12.235Z,-1.16
2022-11-22T05:28:39.349Z,-1.19
2022-11-22T05:31:11.371Z,-1.17
2022-11-22T05:33:40.242Z,-1.14
2022-11-22T05:36:07.749Z,-1.22
2022-11-22T05:38:37.619Z,-1.28
2022-11-22T05:41:06.272Z,-1.23
2022-11-22T05:43:33.509Z,-1.23
2022-11-22T05:46:23.570Z,-1.20
2022-11-22T05:48:51.208Z,-1.21
2022-11-22T05:51:20.379Z,-1.09
2022-11-22T05:53:47.630Z,-1.10
2022-11-22T05:56:17.259Z,-0.99
2022-11-22T05:58:44.557Z,-0.93
2022-11-22T06:01:16.959Z,-0.95
2022-11-22T06:03:43.832Z,-0.91
2022-11-22T06:06:11.100Z,-0.89
2022-11-22T06:08:41.115Z,-0.87
2022-11-22T06:11:09.908Z,-0.86
2022-11-22T06:13:38.277Z,-0.79
2022-11-22T06:16:06.781Z,-0.83
2022-11-22T06:18:34.099Z,-0.79
2022-11-22T06:21:02.935Z,-0.72
2022-11-22T06:23:30.300Z,-0.69
2022-11-22T06:26:18.511Z,-0.63
2022-11-22T06:28:46.585Z,-0.59
2022-11-22T06:31:15.446Z,-0.53
2022-11-22T06:33:43.446Z,-0.43
2022-11-22T06:36:12.699Z,-0.32
2022-11-22T06:38:40.924Z,-0.29
2022-11-22T06:41:09.835Z,-0.15
2022-11-22T06:43:41.386Z,-0.13
2022-11-22T06:46:12.553Z,0.02
2022-11-22T06:48:40.807Z,0.10
2022-11-22T06:51:10.669Z,0.09
2022-11-22T06:53:53.019Z,0.19
2022-11-22T06:56:31.498Z,0.18
2022-11-22T06:59:01.028Z,0.24
2022-11-22T07:01:29.749Z,0.28
2022-11-22T07:04:00.502Z,0.29
2022-11-22T07:06:32.314Z,0.38
2022-11-22T07:09:00.159Z,0.51
2022-11-22T07:11:29.853Z,0.45
2022-11-22T07:14:03.222Z,0.48
2022-11-22T07:16:32.243Z,0.71
2022-11-22T07:18:59.655Z,0.76
2022-11-22T07:21:26.750Z,0.87
2022-11-22T07:23:55.261Z,0.74
2022-11-22T07:26:23.698Z,0.89
2022-11-22T07:28:50.313Z,0.83
2022-11-22T07:31:17.720Z,0.79
2022-11-22T07:33:44.807Z,0.69
2022-11-22T07:36:20.737Z,0.79
2022-11-22T07:38:48.575Z,0.91
2022-11-22T07:41:16.128Z,0.85
2022-11-22T07:43:42.673Z,1.02
2022-11-22T07:46:29.822Z,1.02
2022-11-22T07:48:57.811Z,1.22
2022-11-22T07:51:24.541Z,1.17
2022-11-22T07:53:51.174Z,1.13
2022-11-22T07:56:17.941Z,1.50
2022-11-22T07:58:44.549Z,1.20
2022-11-22T08:01:13.892Z,1.45
2022-11-22T08:03:40.816Z,1.57
2022-11-22T08:06:09.785Z,1.44
2022-11-22T08:08:36.878Z,1.68
2022-11-22T08:11:04.473Z,2.03
2022-11-22T08:13:32.096Z,2.23
2022-11-22T08:16:13.317Z,2.36
2022-11-22T08:18:40.887Z,2.05
2022-11-22T08:21:12.782Z,2.09
2022-11-22T08:23:40.083Z,2.18
2022-11-22T08:26:08.663Z,2.45
2022-11-22T08:28:35.742Z,2.22
2022-11-22T08:31:09.000Z,2.25
2022-11-22T08:33:35.824Z,2.49
2022-11-22T08:36:02.727Z,2.32
2022-11-22T08:38:29.421Z,2.24
2022-11-22T08:40:56.131Z,2.60
2022-11-22T08:43:22.926Z,2.68
2022-11-22T08:45:54.310Z,2.62
2022-11-22T08:48:22.564Z,2.89
2022-11-22T08:50:54.144Z,2.82
2022-11-22T08:53:21.345Z,2.79
2022-11-22T08:55:48.139Z,3.09
2022-11-22T08:58:14.892Z,2.87
2022-11-22T09:00:42.038Z,3.21
2022-11-22T09:03:08.583Z,3.32
2022-11-22T09:05:35.337Z,3.27
2022-11-22T09:10:49.861Z,3.88
2022-11-22T09:13:16.414Z,3.78
2022-11-22T09:15:42.948Z,3.87
2022-11-22T09:18:09.600Z,3.79
2022-11-22T09:20:36.194Z,3.94
2022-11-22T09:23:04.165Z,4.27
2022-11-22T09:25:30.742Z,4.24
2022-11-22T09:28:02.620Z,4.51
2022-11-22T09:30:32.274Z,4.16
2022-11-22T09:32:58.825Z,4.21
2022-11-22T09:35:25.400Z,4.11
2022-11-22T09:37:51.922Z,4.61
2022-11-22T09:40:18.573Z,4.77
2022-11-22T09:43:13.348Z,4.98
2022-11-22T09:45:46.108Z,5.25
2022-11-22T09:48:20.282Z,5.22
2022-11-22T09:51:15.140Z,4.99
2022-11-22T09:53:49.205Z,5.64
2022-11-22T09:56:18.676Z,5.82
2022-11-22T09:58:51.732Z,5.95
2022-11-22T10:01:27.681Z,5.39
2022-11-22T10:04:02.818Z,5.51
2022-11-22T10:06:34.696Z,5.73
2022-11-22T10:09:38.418Z,6.20
2022-11-22T10:12:19.754Z,6.68
2022-11-22T10:15:02.920Z,5.83
2022-11-22T10:17:48.159Z,6.25
2022-11-22T10:20:23.360Z,6.44
2022-11-22T10:22:50.602Z,6.11
2022-11-22T10:25:36.210Z,5.72
2022-11-22T10:28:25.975Z,5.47
2022-11-22T10:31:04.546Z,5.77
2022-11-22T10:34:15.483Z,5.96
2022-11-22T10:36:41.970Z,5.72
2022-11-22T10:39:14.223Z,5.63
2022-11-22T10:42:04.690Z,5.36
2022-11-22T10:44:37.496Z,5.39
2022-11-22T10:47:03.975Z,5.24
2022-11-22T10:50:12.108Z,5.07
2022-11-22T10:53:00.013Z,5.08
2022-11-22T10:55:46.743Z,5.07
2022-11-22T10:58:34.070Z,5.17
2022-11-22T11:01:38.214Z,5.60
2022-11-22T11:04:07.249Z,6.22
2022-11-22T11:12:34.950Z,6.86
2022-11-22T11:15:13.070Z,6.90
2022-11-22T11:17:40.888Z,6.59
2022-11-22T11:20:22.728Z,6.63
2022-11-22T11:23:13.671Z,7.01
2022-11-22T11:25:42.787Z,7.43
2022-11-22T11:28:19.135Z,7.20
2022-11-22T11:30:54.137Z,7.35
2022-11-22T11:33:32.257Z,6.91
2022-11-22T11:36:11.672Z,7.49
2022-11-22T11:38:41.152Z,7.60
2022-11-22T11:41:18.750Z,7.33
2022-11-22T11:43:46.343Z,6.68
2022-11-22T11:46:21.752Z,6.43
2022-11-22T11:48:50.213Z,6.70
2022-11-22T11:51:25.134Z,6.88
2022-11-22T11:54:00.080Z,6.66
2022-11-22T11:56:45.339Z,6.85
2022-11-22T11:59:15.819Z,6.63
2022-11-22T12:01:55.226Z,6.76
2022-11-22T12:04:25.980Z,6.63
2022-11-22T12:07:03.581Z,6.71
2022-11-22T12:09:34.159Z,6.43
2022-11-22T12:12:23.704Z,6.51
2022-11-22T12:15:11.360Z,6.71
2022-11-22T12:17:48.917Z,6.25
2022-11-22T12:20:22.396Z,6.15
2022-11-22T12:23:05.923Z,5.87
2022-11-22T12:25:38.841Z,5.48
2022-11-22T12:28:21.752Z,5.58
2022-11-22T12:31:03.383Z,5.54
2022-11-22T12:33:37.151Z,5.40
2022-11-22T12:36:10.381Z,5.68
2022-11-22T12:38:42.043Z,5.68
2022-11-22T12:41:13.982Z,5.86
2022-11-22T12:44:02.394Z,5.72
2022-11-22T12:46:54.433Z,5.43
2022-11-22T12:49:31.177Z,5.75
2022-11-22T12:52:17.310Z,5.47
2022-11-22T12:55:06.920Z,5.18
2022-11-22T12:57:50.033Z,5.14
2022-11-22T13:00:22.238Z,5.01
2022-11-22T13:03:15.132Z,4.80
2022-11-22T13:06:09.004Z,4.82
2022-11-22T13:08:51.532Z,4.65
2022-11-22T13:11:34.432Z,4.61
2022-11-22T13:14:29.215Z,4.52
2022-11-22T13:16:57.141Z,4.33
2022-11-22T13:19:25.022Z,4.46
2022-11-22T13:22:20.532Z,4.52
2022-11-22T13:24:55.809Z,4.37
2022-11-22T13:27:25.267Z,4.26
2022-11-22T13:29:56.412Z,4.33
2022-11-22T13:32:26.929Z,4.33
2022-11-22T13:34:59.449Z,4.29
2022-11-22T13:37:27.690Z,4.28
2022-11-22T13:39:54.335Z,4.30
2022-11-22T13:42:26.079Z,4.23
2022-11-22T13:44:55.339Z,4.20
2022-11-22T13:47:36.887Z,4.12
2022-11-22T13:50:41.444Z,4.19
2022-11-22T13:53:20.114Z,4.17
2022-11-22T13:55:47.274Z,4.07
2022-11-22T13:58:39.916Z,4.00
2022-11-22T14:01:33.522Z,3.94
2022-11-22T14:04:26.823Z,3.96
2022-11-22T14:06:57.695Z,3.79
2022-11-22T14:09:36.978Z,3.79
2022-11-22T14:12:03.444Z,3.79
2022-11-22T14:14:47.934Z,3.71
2022-11-22T14:17:48.128Z,3.69
2022-11-22T14:20:33.706Z,3.64
2022-11-22T14:23:29.705Z,3.62
2022-11-22T14:26:18.225Z,3.56
2022-11-22T14:29:03.285Z,3.50
2022-11-22T14:31:33.014Z,3.50
2022-11-22T14:34:58.268Z,3.54
2022-11-22T14:37:33.751Z,3.51
2022-11-22T14:40:09.042Z,3.49
2022-11-22T14:42:35.571Z,3.51
2022-11-22T14:45:11.192Z,3.46
2022-11-22T14:47:46.027Z,3.43
2022-11-22T14:50:38.268Z,3.42
2022-11-22T14:53:27.616Z,3.43
2022-11-22T14:56:07.819Z,3.42
2022-11-22T14:58:39.185Z,3.36
2022-11-22T15:01:18.105Z,3.35
2022-11-22T15:09:11.395Z,3.39
2022-11-22T15:09:24.043Z,3.42
2022-11-22T15:10:21.967Z,3.38
2022-11-22T15:13:16.120Z,3.39
2022-11-22T15:57:47.797Z,3.27
2022-11-22T16:00:25.359Z,3.31
2022-11-22T16:02:57.230Z,3.25
2022-11-22T16:06:06.844Z,3.34
2022-11-22T16:08:22.330Z,3.34
2022-11-22T16:10:51.197Z,3.28
2022-11-22T16:13:20.740Z,3.30
2022-11-22T16:16:12.523Z,3.26
2022-11-22T16:18:40.436Z,3.28
2022-11-22T16:21:12.714Z,3.19
2022-11-22T16:23:40.795Z,3.22
2022-11-22T16:26:24.710Z,3.25
2022-11-22T16:28:54.818Z,3.27
2022-11-22T16:31:40.457Z,3.27
2022-11-22T16:34:15.264Z,3.25
2022-11-22T16:36:41.826Z,3.28
2022-11-22T16:39:08.396Z,3.28
2022-11-22T16:41:35.093Z,3.24
2022-11-22T16:44:11.651Z,3.29
2022-11-22T16:46:39.939Z,3.29
2022-11-22T16:49:33.061Z,3.31
2022-11-22T16:51:59.974Z,3.35
2022-11-22T16:54:28.523Z,3.35
2022-11-22T16:56:57.183Z,3.37
2022-11-22T16:59:23.774Z,3.36
2022-11-22T17:01:50.339Z,3.38
2022-11-22T17:04:27.601Z,3.40
2022-11-22T17:06:54.601Z,3.43
2022-11-22T17:09:21.144Z,3.42
2022-11-22T17:11:50.684Z,3.48
2022-11-22T17:14:18.877Z,3.52
2022-11-22T17:16:46.021Z,3.55
2022-11-22T17:22:00.850Z,3.64
2022-11-22T17:24:27.429Z,3.63
2022-11-22T17:26:54.035Z,3.62
2022-11-22T17:29:49.828Z,3.61
2022-11-22T17:32:10.284Z,3.64
2022-11-22T17:34:36.834Z,3.72
2022-11-22T17:37:03.429Z,3.73
2022-11-22T17:39:30.333Z,3.69
2022-11-22T17:41:57.094Z,3.75
2022-11-22T17:44:23.819Z,3.73
2022-11-22T17:46:52.632Z,3.78
2022-11-22T17:49:19.193Z,3.78
2022-11-22T17:51:46.642Z,3.74
2022-11-22T17:54:13.206Z,3.78
2022-11-22T17:56:39.876Z,3.82
2022-11-22T17:59:06.473Z,3.85
2022-11-22T18:01:33.117Z,3.83
2022-11-22T18:03:59.678Z,3.91
2022-11-22T18:06:26.610Z,3.89
2022-11-22T18:08:53.290Z,3.89
2022-11-22T18:11:20.196Z,3.96
2022-11-22T18:13:47.058Z,3.87
2022-11-22T18:16:15.799Z,3.92
2022-11-22T18:18:58.793Z,3.93
2022-11-22T18:21:30.760Z,3.91
2022-11-22T18:23:58.858Z,3.88
2022-11-22T18:26:41.961Z,3.85
2022-11-22T18:32:00.605Z,3.83
2022-11-22T18:34:27.876Z,3.84
2022-11-22T18:37:00.286Z,3.82
2022-11-22T18:39:32.521Z,3.86
2022-11-22T18:41:59.361Z,3.85
2022-11-22T18:44:26.311Z,3.86
2022-11-22T18:46:52.983Z,3.86
2022-11-22T18:49:21.764Z,3.90
2022-11-22T18:51:48.391Z,3.93
2022-11-22T18:54:15.014Z,3.94
2022-11-22T18:56:44.414Z,3.94
2022-11-22T18:59:14.397Z,3.93
2022-11-22T19:01:41.174Z,3.94
2022-11-22T19:04:09.688Z,3.96
2022-11-22T19:06:36.371Z,4.02
2022-11-22T19:09:03.042Z,3.98
2022-11-22T19:11:32.147Z,3.97
2022-11-22T19:13:59.283Z,3.98
2022-11-22T19:16:29.536Z,3.96
2022-11-22T19:18:56.603Z,3.99
2022-11-22T19:21:25.668Z,3.99
2022-11-22T19:23:52.605Z,3.99
2022-11-22T19:26:22.572Z,4.00
2022-11-22T19:28:50.971Z,4.07
2022-11-22T19:31:19.445Z,4.05
2022-11-22T19:33:46.213Z,4.10
2022-11-22T19:36:18.733Z,4.06
2022-11-22T19:38:45.702Z,4.04
2022-11-22T19:41:15.319Z,4.09
2022-11-22T19:43:41.909Z,4.06
2022-11-22T19:46:08.661Z,4.07
2022-11-22T19:48:35.915Z,4.12
2022-11-22T19:51:09.877Z,4.11
2022-11-22T19:53:36.481Z,4.14
2022-11-22T19:56:10.509Z,4.08
2022-11-22T19:58:37.088Z,4.07
2022-11-22T20:01:05.639Z,4.05
2022-11-22T20:03:39.833Z,4.06
2022-11-22T20:06:08.666Z,4.01
2022-11-22T20:08:35.989Z,4.00
2022-11-22T20:11:04.210Z,3.98
2022-11-22T20:13:33.568Z,4.00
2022-11-22T20:16:24.399Z,3.98
2022-11-22T20:19:07.657Z,3.92
2022-11-22T20:21:35.829Z,3.91
2022-11-22T20:24:02.904Z,3.92
2022-11-22T20:26:30.965Z,3.98
2022-11-22T20:28:59.859Z,3.96
2022-11-22T20:31:27.965Z,3.94
2022-11-22T20:33:55.448Z,3.96
2022-11-22T20:36:30.883Z,3.94
2022-11-22T20:38:57.980Z,3.91
2022-11-22T20:41:27.360Z,3.87
2022-11-22T20:43:54.481Z,3.86
2022-11-22T20:46:26.799Z,3.81
2022-11-22T20:49:03.719Z,3.80
2022-11-22T20:51:30.396Z,3.81
2022-11-22T20:53:57.869Z,3.75
2022-11-22T20:56:25.218Z,3.74
2022-11-22T20:58:52.525Z,3.69
2022-11-22T21:01:28.044Z,3.70
2022-11-22T21:03:55.101Z,3.72
2022-11-22T21:06:24.493Z,3.76
2022-11-22T21:08:51.200Z,3.74
2022-11-22T21:11:20.734Z,3.70
2022-11-22T21:13:51.065Z,3.66
2022-11-22T21:16:23.793Z,3.71
2022-11-22T21:19:02.300Z,3.68
2022-11-22T21:21:29.897Z,3.65
2022-11-22T21:24:01.218Z,3.65
2022-11-22T21:26:28.424Z,3.58
2022-11-22T21:28:55.208Z,3.59
2022-11-22T21:31:22.458Z,3.62
2022-11-22T21:33:51.995Z,3.55
2022-11-22T21:36:22.367Z,3.53
2022-11-22T21:38:49.254Z,3.51
2022-11-22T21:44:05.207Z,3.48
2022-11-22T21:46:32.277Z,3.50
2022-11-22T21:48:58.861Z,3.49
2022-11-22T21:51:26.406Z,3.48
2022-11-22T21:53:57.654Z,3.52
2022-11-22T21:56:24.422Z,3.47
2022-11-22T21:58:51.037Z,3.45
2022-11-22T22:01:17.629Z,3.46
2022-11-22T22:03:44.229Z,3.48
2022-11-22T22:06:10.769Z,3.46
2022-11-22T22:08:37.404Z,3.46
2022-11-22T22:11:05.357Z,3.46
2022-11-22T22:13:32.808Z,3.42
2022-11-22T22:16:03.815Z,3.47
2022-11-22T22:18:37.605Z,3.42
2022-11-22T22:21:07.278Z,3.50
2022-11-22T22:23:35.217Z,3.46
2022-11-22T22:26:04.316Z,3.50
2022-11-22T22:28:32.412Z,3.43
2022-11-22T22:31:12.693Z,3.49
2022-11-22T22:33:41.344Z,3.51
2022-11-22T22:36:09.794Z,3.52
2022-11-22T22:38:37.093Z,3.52
2022-11-22T22:41:05.141Z,3.51
2022-11-22T22:43:34.776Z,3.53
2022-11-22T22:46:06.655Z,3.50
2022-11-22T22:48:34.087Z,3.48
2022-11-22T22:51:13.969Z,3.51
2022-11-22T22:53:41.452Z,3.51
2022-11-22T22:56:09.774Z,3.52
2022-11-22T22:58:37.060Z,3.50
2022-11-22T23:01:14.281Z,3.52
2022-11-22T23:03:41.413Z,3.51
2022-11-22T23:06:10.370Z,3.50
2022-11-22T23:08:38.337Z,3.52
2022-11-22T23:11:07.299Z,3.53
2022-11-22T23:13:38.912Z,3.48
2022-11-22T23:16:07.014Z,3.48
2022-11-22T23:18:41.695Z,3.48
2022-11-22T23:21:11.215Z,3.49
2022-11-22T23:23:37.877Z,3.48
2022-11-22T23:26:10.099Z,3.43
2022-11-22T23:28:37.521Z,3.47
2022-11-22T23:31:09.233Z,3.43
2022-11-22T23:33:35.919Z,3.40
2022-11-22T23:36:07.760Z,3.39
2022-11-22T23:38:34.583Z,3.43
2022-11-22T23:41:01.723Z,3.37
2022-11-22T23:43:28.853Z,3.42
2022-11-22T23:45:55.565Z,3.39
2022-11-22T23:48:22.138Z,3.42
2022-11-22T23:50:48.684Z,3.43
2022-11-22T23:53:15.216Z,3.43
2022-11-22T23:55:41.810Z,3.40
2022-11-22T23:58:08.379Z,3.40
